sensor_id;sensor_type;location;lat;lon;timestamp;P1;durP1;ratioP1;P2;durP2;ratioP2
77955;SDS011;67152;36.266;32.294;2023-02-26T00:01:00;8.90;;;4.97;;
77955;SDS011;67152;36.266;32.294;2023-02-26T00:03:28;11.15;;;8.93;;
77955;SDS011;67152;36.266;32.294;2023-02-26T00:06:03;8.13;;;5.25;;
77955;SDS011;67152;36.266;32.294;2023-02-26T00:08:30;8.32;;;5.78;;
77955;SDS011;67152;36.266;32.294;2023-02-26T00:10:57;6.90;;;5.35;;
77955;SDS011;67152;36.266;32.294;2023-02-26T00:13:27;8.88;;;5.22;;
77955;SDS011;67152;36.266;32.294;2023-02-26T00:18:22;11.73;;;8.50;;
77955;SDS011;67152;36.266;32.294;2023-02-26T00:20:49;12.30;;;5.50;;
77955;SDS011;67152;36.266;32.294;2023-02-26T00:23:16;15.85;;;7.82;;
77955;SDS011;67152;36.266;32.294;2023-02-26T00:25:44;17.33;;;9.05;;
77955;SDS011;67152;36.266;32.294;2023-02-26T00:28:12;13.27;;;7.13;;
77955;SDS011;67152;36.266;32.294;2023-02-26T00:30:39;14.88;;;8.32;;
77955;SDS011;67152;36.266;32.294;2023-02-26T00:33:06;9.90;;;7.78;;
77955;SDS011;67152;36.266;32.294;2023-02-26T00:35:33;10.77;;;8.23;;
77955;SDS011;67152;36.266;32.294;2023-02-26T00:38:08;10.45;;;8.18;;
77955;SDS011;67152;36.266;32.294;2023-02-26T00:40:53;11.80;;;7.90;;
77955;SDS011;67152;36.266;32.294;2023-02-26T00:43:22;10.07;;;7.20;;
77955;SDS011;67152;36.266;32.294;2023-02-26T00:56:45;8.93;;;5.13;;
77955;SDS011;67152;36.266;32.294;2023-02-26T00:59:11;8.65;;;6.07;;
77955;SDS011;67152;36.266;32.294;2023-02-26T01:01:38;15.52;;;7.28;;
77955;SDS011;67152;36.266;32.294;2023-02-26T01:04:05;7.32;;;6.03;;
77955;SDS011;67152;36.266;32.294;2023-02-26T01:06:33;13.88;;;8.27;;
77955;SDS011;67152;36.266;32.294;2023-02-26T01:14:15;7.47;;;4.63;;
77955;SDS011;67152;36.266;32.294;2023-02-26T01:19:57;6.10;;;4.55;;
77955;SDS011;67152;36.266;32.294;2023-02-26T01:25:04;8.27;;;6.30;;
77955;SDS011;67152;36.266;32.294;2023-02-26T01:27:33;9.82;;;7.68;;
77955;SDS011;67152;36.266;32.294;2023-02-26T01:30:00;11.67;;;8.77;;
77955;SDS011;67152;36.266;32.294;2023-02-26T01:32:50;11.23;;;8.10;;
77955;SDS011;67152;36.266;32.294;2023-02-26T01:38:05;8.35;;;6.50;;
77955;SDS011;67152;36.266;32.294;2023-02-26T01:46:58;12.52;;;9.00;;
77955;SDS011;67152;36.266;32.294;2023-02-26T01:49:36;9.23;;;7.18;;
77955;SDS011;67152;36.266;32.294;2023-02-26T01:52:04;9.57;;;6.30;;
77955;SDS011;67152;36.266;32.294;2023-02-26T01:54:34;12.60;;;7.57;;
77955;SDS011;67152;36.266;32.294;2023-02-26T01:57:11;12.90;;;6.93;;
77955;SDS011;67152;36.266;32.294;2023-02-26T01:59:41;10.07;;;5.95;;
77955;SDS011;67152;36.266;32.294;2023-02-26T02:02:10;10.63;;;6.35;;
77955;SDS011;67152;36.266;32.294;2023-02-26T02:04:38;10.27;;;6.80;;
77955;SDS011;67152;36.266;32.294;2023-02-26T02:07:07;9.40;;;7.18;;
77955;SDS011;67152;36.266;32.294;2023-02-26T02:09:34;8.40;;;6.70;;
77955;SDS011;67152;36.266;32.294;2023-02-26T02:14:53;7.43;;;5.50;;
77955;SDS011;67152;36.266;32.294;2023-02-26T02:17:50;6.75;;;5.22;;
77955;SDS011;67152;36.266;32.294;2023-02-26T02:36:37;7.47;;;5.75;;
77955;SDS011;67152;36.266;32.294;2023-02-26T02:39:17;8.13;;;6.15;;
77955;SDS011;67152;36.266;32.294;2023-02-26T02:41:50;15.15;;;6.85;;
77955;SDS011;67152;36.266;32.294;2023-02-26T02:44:21;4.80;;;3.97;;
77955;SDS011;67152;36.266;32.294;2023-02-26T02:46:51;9.82;;;7.85;;
77955;SDS011;67152;36.266;32.294;2023-02-26T02:49:27;16.13;;;7.32;;
77955;SDS011;67152;36.266;32.294;2023-02-26T02:52:07;9.95;;;8.35;;
77955;SDS011;67152;36.266;32.294;2023-02-26T02:54:50;9.38;;;6.28;;
77955;SDS011;67152;36.266;32.294;2023-02-26T02:57:21;12.35;;;8.85;;
77955;SDS011;67152;36.266;32.294;2023-02-26T02:59:52;11.52;;;7.47;;
77955;SDS011;67152;36.266;32.294;2023-02-26T03:04:58;8.23;;;5.50;;
77955;SDS011;67152;36.266;32.294;2023-02-26T03:07:25;8.75;;;6.35;;
77955;SDS011;67152;36.266;32.294;2023-02-26T03:09:53;10.90;;;6.85;;
77955;SDS011;67152;36.266;32.294;2023-02-26T03:12:20;6.50;;;4.60;;
77955;SDS011;67152;36.266;32.294;2023-02-26T03:14:46;6.07;;;4.57;;
77955;SDS011;67152;36.266;32.294;2023-02-26T03:20:02;15.25;;;7.85;;
77955;SDS011;67152;36.266;32.294;2023-02-26T03:25:30;11.02;;;6.32;;
77955;SDS011;67152;36.266;32.294;2023-02-26T03:30:53;6.15;;;4.75;;
77955;SDS011;67152;36.266;32.294;2023-02-26T03:36:31;11.00;;;6.85;;
77955;SDS011;67152;36.266;32.294;2023-02-26T03:39:13;11.70;;;9.07;;
77955;SDS011;67152;36.266;32.294;2023-02-26T03:41:50;11.38;;;6.88;;
77955;SDS011;67152;36.266;32.294;2023-02-26T03:47:02;11.35;;;8.30;;
77955;SDS011;67152;36.266;32.294;2023-02-26T03:49:32;11.20;;;8.65;;
77955;SDS011;67152;36.266;32.294;2023-02-26T03:52:05;13.05;;;9.50;;
77955;SDS011;67152;36.266;32.294;2023-02-26T03:54:42;11.57;;;8.80;;
77955;SDS011;67152;36.266;32.294;2023-02-26T03:57:20;17.70;;;9.15;;
77955;SDS011;67152;36.266;32.294;2023-02-26T03:59:47;13.50;;;9.70;;
77955;SDS011;67152;36.266;32.294;2023-02-26T04:02:18;10.48;;;7.93;;
77955;SDS011;67152;36.266;32.294;2023-02-26T04:07:20;14.60;;;8.88;;
77955;SDS011;67152;36.266;32.294;2023-02-26T04:09:48;18.73;;;9.77;;
77955;SDS011;67152;36.266;32.294;2023-02-26T04:12:23;13.68;;;9.55;;
77955;SDS011;67152;36.266;32.294;2023-02-26T04:14:50;14.60;;;9.65;;
77955;SDS011;67152;36.266;32.294;2023-02-26T04:17:17;12.90;;;9.70;;
77955;SDS011;67152;36.266;32.294;2023-02-26T04:19:44;15.32;;;10.85;;
77955;SDS011;67152;36.266;32.294;2023-02-26T04:22:11;12.32;;;9.25;;
77955;SDS011;67152;36.266;32.294;2023-02-26T04:24:38;15.30;;;11.18;;
77955;SDS011;67152;36.266;32.294;2023-02-26T04:27:05;20.95;;;12.63;;
77955;SDS011;67152;36.266;32.294;2023-02-26T04:29:32;16.52;;;8.93;;
77955;SDS011;67152;36.266;32.294;2023-02-26T04:31:59;12.00;;;8.33;;
77955;SDS011;67152;36.266;32.294;2023-02-26T04:34:26;14.38;;;10.35;;
77955;SDS011;67152;36.266;32.294;2023-02-26T04:36:53;16.88;;;10.38;;
77955;SDS011;67152;36.266;32.294;2023-02-26T04:39:20;15.70;;;9.15;;
77955;SDS011;67152;36.266;32.294;2023-02-26T04:41:46;15.35;;;9.65;;
77955;SDS011;67152;36.266;32.294;2023-02-26T04:44:13;15.45;;;9.65;;
77955;SDS011;67152;36.266;32.294;2023-02-26T04:46:40;18.88;;;11.70;;
77955;SDS011;67152;36.266;32.294;2023-02-26T04:49:07;18.25;;;11.35;;
77955;SDS011;67152;36.266;32.294;2023-02-26T04:51:33;21.23;;;12.70;;
77955;SDS011;67152;36.266;32.294;2023-02-26T04:54:00;24.13;;;11.90;;
77955;SDS011;67152;36.266;32.294;2023-02-26T04:56:27;20.25;;;12.45;;
77955;SDS011;67152;36.266;32.294;2023-02-26T04:58:54;15.70;;;12.13;;
77955;SDS011;67152;36.266;32.294;2023-02-26T05:01:21;16.70;;;11.60;;
77955;SDS011;67152;36.266;32.294;2023-02-26T05:03:47;16.10;;;10.60;;
77955;SDS011;67152;36.266;32.294;2023-02-26T05:06:14;21.42;;;11.38;;
77955;SDS011;67152;36.266;32.294;2023-02-26T05:08:41;16.27;;;12.82;;
77955;SDS011;67152;36.266;32.294;2023-02-26T05:11:08;16.80;;;11.67;;
77955;SDS011;67152;36.266;32.294;2023-02-26T05:13:35;15.38;;;12.02;;
77955;SDS011;67152;36.266;32.294;2023-02-26T05:16:02;15.98;;;10.07;;
77955;SDS011;67152;36.266;32.294;2023-02-26T05:18:29;12.55;;;9.48;;
77955;SDS011;67152;36.266;32.294;2023-02-26T05:23:23;13.52;;;9.48;;
77955;SDS011;67152;36.266;32.294;2023-02-26T05:25:50;16.37;;;10.63;;
77955;SDS011;67152;36.266;32.294;2023-02-26T05:28:19;16.33;;;9.60;;
77955;SDS011;67152;36.266;32.294;2023-02-26T05:30:46;12.98;;;9.30;;
77955;SDS011;67152;36.266;32.294;2023-02-26T05:33:13;15.23;;;9.53;;
77955;SDS011;67152;36.266;32.294;2023-02-26T05:35:39;14.07;;;9.43;;
77955;SDS011;67152;36.266;32.294;2023-02-26T05:38:07;11.35;;;8.25;;
77955;SDS011;67152;36.266;32.294;2023-02-26T05:40:33;15.90;;;8.52;;
77955;SDS011;67152;36.266;32.294;2023-02-26T05:43:00;13.73;;;9.85;;
77955;SDS011;67152;36.266;32.294;2023-02-26T05:45:27;18.33;;;10.87;;
77955;SDS011;67152;36.266;32.294;2023-02-26T05:47:53;18.57;;;10.07;;
77955;SDS011;67152;36.266;32.294;2023-02-26T05:50:20;15.35;;;10.60;;
77955;SDS011;67152;36.266;32.294;2023-02-26T05:52:47;17.20;;;9.60;;
77955;SDS011;67152;36.266;32.294;2023-02-26T05:55:14;16.27;;;11.53;;
77955;SDS011;67152;36.266;32.294;2023-02-26T05:57:42;13.63;;;8.07;;
77955;SDS011;67152;36.266;32.294;2023-02-26T06:00:09;13.45;;;8.70;;
77955;SDS011;67152;36.266;32.294;2023-02-26T06:02:37;11.02;;;8.32;;
77955;SDS011;67152;36.266;32.294;2023-02-26T06:05:07;12.02;;;9.07;;
77955;SDS011;67152;36.266;32.294;2023-02-26T06:07:34;15.10;;;8.93;;
77955;SDS011;67152;36.266;32.294;2023-02-26T06:10:01;17.73;;;9.65;;
77955;SDS011;67152;36.266;32.294;2023-02-26T06:12:27;9.70;;;8.05;;
77955;SDS011;67152;36.266;32.294;2023-02-26T06:14:54;17.42;;;9.07;;
77955;SDS011;67152;36.266;32.294;2023-02-26T06:17:21;17.23;;;10.30;;
77955;SDS011;67152;36.266;32.294;2023-02-26T06:19:48;14.05;;;10.05;;
77955;SDS011;67152;36.266;32.294;2023-02-26T06:22:15;13.05;;;9.65;;
77955;SDS011;67152;36.266;32.294;2023-02-26T06:24:42;17.48;;;10.15;;
77955;SDS011;67152;36.266;32.294;2023-02-26T06:27:08;16.90;;;11.18;;
77955;SDS011;67152;36.266;32.294;2023-02-26T06:29:35;17.70;;;11.65;;
77955;SDS011;67152;36.266;32.294;2023-02-26T06:32:03;16.75;;;10.18;;
77955;SDS011;67152;36.266;32.294;2023-02-26T06:34:30;14.93;;;10.05;;
77955;SDS011;67152;36.266;32.294;2023-02-26T06:36:58;14.63;;;9.15;;
77955;SDS011;67152;36.266;32.294;2023-02-26T06:39:25;12.30;;;9.43;;
77955;SDS011;67152;36.266;32.294;2023-02-26T06:41:52;14.43;;;10.40;;
77955;SDS011;67152;36.266;32.294;2023-02-26T06:44:19;13.23;;;9.60;;
77955;SDS011;67152;36.266;32.294;2023-02-26T06:46:46;15.95;;;9.73;;
77955;SDS011;67152;36.266;32.294;2023-02-26T06:49:13;12.75;;;8.82;;
77955;SDS011;67152;36.266;32.294;2023-02-26T06:51:39;14.07;;;9.80;;
77955;SDS011;67152;36.266;32.294;2023-02-26T06:54:06;17.67;;;8.52;;
77955;SDS011;67152;36.266;32.294;2023-02-26T06:56:33;16.67;;;9.60;;
77955;SDS011;67152;36.266;32.294;2023-02-26T06:59:00;15.60;;;9.63;;
77955;SDS011;67152;36.266;32.294;2023-02-26T07:01:27;18.83;;;13.30;;
77955;SDS011;67152;36.266;32.294;2023-02-26T07:03:54;13.60;;;9.90;;
77955;SDS011;67152;36.266;32.294;2023-02-26T07:06:21;16.48;;;10.35;;
77955;SDS011;67152;36.266;32.294;2023-02-26T07:08:48;14.02;;;10.48;;
77955;SDS011;67152;36.266;32.294;2023-02-26T07:11:14;11.07;;;9.77;;
77955;SDS011;67152;36.266;32.294;2023-02-26T07:13:41;13.32;;;9.73;;
77955;SDS011;67152;36.266;32.294;2023-02-26T07:16:08;15.55;;;11.07;;
77955;SDS011;67152;36.266;32.294;2023-02-26T07:18:36;12.20;;;9.20;;
77955;SDS011;67152;36.266;32.294;2023-02-26T07:21:03;16.40;;;10.35;;
77955;SDS011;67152;36.266;32.294;2023-02-26T07:23:30;13.75;;;10.00;;
77955;SDS011;67152;36.266;32.294;2023-02-26T07:25:57;16.30;;;10.13;;
77955;SDS011;67152;36.266;32.294;2023-02-26T07:28:24;14.10;;;10.15;;
77955;SDS011;67152;36.266;32.294;2023-02-26T07:30:54;24.60;;;11.85;;
77955;SDS011;67152;36.266;32.294;2023-02-26T07:33:22;17.88;;;10.43;;
77955;SDS011;67152;36.266;32.294;2023-02-26T07:35:50;14.05;;;10.02;;
77955;SDS011;67152;36.266;32.294;2023-02-26T07:38:16;13.15;;;10.70;;
77955;SDS011;67152;36.266;32.294;2023-02-26T07:40:43;15.35;;;10.98;;
77955;SDS011;67152;36.266;32.294;2023-02-26T07:43:10;12.10;;;9.88;;
77955;SDS011;67152;36.266;32.294;2023-02-26T07:45:37;17.52;;;10.32;;
77955;SDS011;67152;36.266;32.294;2023-02-26T07:48:04;12.00;;;10.55;;
77955;SDS011;67152;36.266;32.294;2023-02-26T07:50:31;17.13;;;10.50;;
77955;SDS011;67152;36.266;32.294;2023-02-26T07:52:58;16.38;;;9.13;;
77955;SDS011;67152;36.266;32.294;2023-02-26T07:57:52;8.13;;;7.13;;
77955;SDS011;67152;36.266;32.294;2023-02-26T08:00:19;13.98;;;8.10;;
77955;SDS011;67152;36.266;32.294;2023-02-26T08:02:47;11.93;;;8.10;;
77955;SDS011;67152;36.266;32.294;2023-02-26T08:05:13;12.55;;;9.07;;
77955;SDS011;67152;36.266;32.294;2023-02-26T08:07:41;12.27;;;7.82;;
77955;SDS011;67152;36.266;32.294;2023-02-26T08:10:08;18.77;;;7.10;;
77955;SDS011;67152;36.266;32.294;2023-02-26T08:12:36;10.70;;;7.03;;
77955;SDS011;67152;36.266;32.294;2023-02-26T08:15:03;8.32;;;7.45;;
77955;SDS011;67152;36.266;32.294;2023-02-26T08:17:31;10.27;;;7.30;;
77955;SDS011;67152;36.266;32.294;2023-02-26T08:19:58;13.50;;;8.38;;
77955;SDS011;67152;36.266;32.294;2023-02-26T08:22:44;10.90;;;8.30;;
77955;SDS011;67152;36.266;32.294;2023-02-26T08:25:11;8.95;;;6.47;;
77955;SDS011;67152;36.266;32.294;2023-02-26T08:27:38;8.13;;;6.68;;
77955;SDS011;67152;36.266;32.294;2023-02-26T08:30:06;16.08;;;7.20;;
77955;SDS011;67152;36.266;32.294;2023-02-26T08:32:33;15.02;;;6.78;;
77955;SDS011;67152;36.266;32.294;2023-02-26T08:35:02;10.70;;;7.13;;
77955;SDS011;67152;36.266;32.294;2023-02-26T08:39:55;9.10;;;7.15;;
77955;SDS011;67152;36.266;32.294;2023-02-26T08:42:22;11.38;;;7.28;;
77955;SDS011;67152;36.266;32.294;2023-02-26T08:47:16;10.48;;;6.57;;
77955;SDS011;67152;36.266;32.294;2023-02-26T08:49:43;10.63;;;7.53;;
77955;SDS011;67152;36.266;32.294;2023-02-26T08:52:10;11.05;;;7.05;;
77955;SDS011;67152;36.266;32.294;2023-02-26T08:54:56;10.40;;;7.10;;
77955;SDS011;67152;36.266;32.294;2023-02-26T08:57:23;7.82;;;6.70;;
77955;SDS011;67152;36.266;32.294;2023-02-26T08:59:50;8.40;;;6.63;;
77955;SDS011;67152;36.266;32.294;2023-02-26T09:02:17;22.35;;;7.50;;
77955;SDS011;67152;36.266;32.294;2023-02-26T09:04:44;7.68;;;6.97;;
77955;SDS011;67152;36.266;32.294;2023-02-26T09:07:12;9.82;;;7.05;;
77955;SDS011;67152;36.266;32.294;2023-02-26T09:09:39;11.95;;;7.35;;
77955;SDS011;67152;36.266;32.294;2023-02-26T09:14:33;8.48;;;7.32;;
77955;SDS011;67152;36.266;32.294;2023-02-26T09:17:01;14.20;;;7.00;;
77955;SDS011;67152;36.266;32.294;2023-02-26T09:19:29;16.73;;;7.28;;
77955;SDS011;67152;36.266;32.294;2023-02-26T09:24:23;7.93;;;6.35;;
77955;SDS011;67152;36.266;32.294;2023-02-26T09:26:50;8.98;;;7.07;;
77955;SDS011;67152;36.266;32.294;2023-02-26T09:29:37;13.63;;;7.20;;
77955;SDS011;67152;36.266;32.294;2023-02-26T09:32:04;8.57;;;6.68;;
77955;SDS011;67152;36.266;32.294;2023-02-26T09:34:34;28.67;;;8.00;;
77955;SDS011;67152;36.266;32.294;2023-02-26T09:37:02;13.77;;;7.10;;
77955;SDS011;67152;36.266;32.294;2023-02-26T09:39:30;13.10;;;7.13;;
77955;SDS011;67152;36.266;32.294;2023-02-26T09:44:47;19.67;;;7.53;;
77955;SDS011;67152;36.266;32.294;2023-02-26T09:55:05;9.85;;;7.47;;
77955;SDS011;67152;36.266;32.294;2023-02-26T09:57:41;9.65;;;6.90;;
77955;SDS011;67152;36.266;32.294;2023-02-26T10:05:44;11.40;;;6.73;;
77955;SDS011;67152;36.266;32.294;2023-02-26T10:08:15;9.23;;;6.32;;
77955;SDS011;67152;36.266;32.294;2023-02-26T10:15:51;9.02;;;7.50;;
77955;SDS011;67152;36.266;32.294;2023-02-26T10:18:20;10.20;;;6.93;;
77955;SDS011;67152;36.266;32.294;2023-02-26T10:26:27;8.15;;;7.30;;
77955;SDS011;67152;36.266;32.294;2023-02-26T10:36:53;12.70;;;7.07;;
77955;SDS011;67152;36.266;32.294;2023-02-26T10:42:15;7.88;;;7.07;;
77955;SDS011;67152;36.266;32.294;2023-02-26T10:50:53;8.48;;;7.28;;
77955;SDS011;67152;36.266;32.294;2023-02-26T10:53:23;9.10;;;7.13;;
77955;SDS011;67152;36.266;32.294;2023-02-26T10:58:23;10.80;;;7.90;;
77955;SDS011;67152;36.266;32.294;2023-02-26T11:00:52;9.00;;;7.78;;
77955;SDS011;67152;36.266;32.294;2023-02-26T11:03:28;13.77;;;7.03;;
77955;SDS011;67152;36.266;32.294;2023-02-26T11:05:56;9.50;;;7.05;;
77955;SDS011;67152;36.266;32.294;2023-02-26T11:08:28;12.57;;;7.72;;
77955;SDS011;67152;36.266;32.294;2023-02-26T11:11:01;15.05;;;8.15;;
77955;SDS011;67152;36.266;32.294;2023-02-26T11:13:33;14.05;;;7.57;;
77955;SDS011;67152;36.266;32.294;2023-02-26T11:16:13;8.18;;;7.38;;
77955;SDS011;67152;36.266;32.294;2023-02-26T11:18:43;11.02;;;7.90;;
77955;SDS011;67152;36.266;32.294;2023-02-26T11:21:17;14.70;;;7.38;;
77955;SDS011;67152;36.266;32.294;2023-02-26T11:23:49;9.20;;;7.03;;
77955;SDS011;67152;36.266;32.294;2023-02-26T11:26:25;9.45;;;6.90;;
77955;SDS011;67152;36.266;32.294;2023-02-26T11:28:53;8.60;;;6.78;;
77955;SDS011;67152;36.266;32.294;2023-02-26T11:31:21;12.55;;;7.35;;
77955;SDS011;67152;36.266;32.294;2023-02-26T11:33:50;10.77;;;7.47;;
77955;SDS011;67152;36.266;32.294;2023-02-26T11:36:31;7.95;;;6.90;;
77955;SDS011;67152;36.266;32.294;2023-02-26T11:39:00;10.95;;;7.70;;
77955;SDS011;67152;36.266;32.294;2023-02-26T11:41:34;8.43;;;7.53;;
77955;SDS011;67152;36.266;32.294;2023-02-26T11:44:07;9.85;;;7.43;;
77955;SDS011;67152;36.266;32.294;2023-02-26T11:46:43;11.48;;;8.07;;
77955;SDS011;67152;36.266;32.294;2023-02-26T11:49:15;14.75;;;8.32;;
77955;SDS011;67152;36.266;32.294;2023-02-26T11:51:44;12.15;;;7.88;;
77955;SDS011;67152;36.266;32.294;2023-02-26T11:54:19;10.05;;;7.18;;
77955;SDS011;67152;36.266;32.294;2023-02-26T11:56:50;13.10;;;7.22;;
77955;SDS011;67152;36.266;32.294;2023-02-26T11:59:21;9.98;;;7.32;;
77955;SDS011;67152;36.266;32.294;2023-02-26T12:01:52;29.45;;;8.07;;
77955;SDS011;67152;36.266;32.294;2023-02-26T12:04:23;10.00;;;7.63;;
77955;SDS011;67152;36.266;32.294;2023-02-26T12:06:52;9.95;;;7.78;;
77955;SDS011;67152;36.266;32.294;2023-02-26T12:09:20;11.38;;;7.20;;
77955;SDS011;67152;36.266;32.294;2023-02-26T12:12:04;9.70;;;8.15;;
77955;SDS011;67152;36.266;32.294;2023-02-26T12:20:05;9.95;;;7.97;;
77955;SDS011;67152;36.266;32.294;2023-02-26T12:34:14;10.02;;;8.23;;
77955;SDS011;67152;36.266;32.294;2023-02-26T12:37:10;11.85;;;8.00;;
77955;SDS011;67152;36.266;32.294;2023-02-26T12:56:00;11.38;;;7.88;;
77955;SDS011;67152;36.266;32.294;2023-02-26T13:01:29;8.77;;;7.88;;
77955;SDS011;67152;36.266;32.294;2023-02-26T13:21:17;11.40;;;8.88;;
77955;SDS011;67152;36.266;32.294;2023-02-26T13:23:50;12.43;;;7.82;;
77955;SDS011;67152;36.266;32.294;2023-02-26T13:26:27;20.55;;;8.80;;
77955;SDS011;67152;36.266;32.294;2023-02-26T13:28:59;19.33;;;8.38;;
77955;SDS011;67152;36.266;32.294;2023-02-26T13:33:58;12.35;;;8.48;;
77955;SDS011;67152;36.266;32.294;2023-02-26T13:36:29;9.45;;;7.65;;
77955;SDS011;67152;36.266;32.294;2023-02-26T13:42:11;10.25;;;7.70;;
77955;SDS011;67152;36.266;32.294;2023-02-26T13:55:52;11.35;;;8.90;;
77955;SDS011;67152;36.266;32.294;2023-02-26T14:01:05;13.80;;;7.88;;
77955;SDS011;67152;36.266;32.294;2023-02-26T14:04:05;12.25;;;8.38;;
77955;SDS011;67152;36.266;32.294;2023-02-26T14:17:29;21.40;;;9.55;;
77955;SDS011;67152;36.266;32.294;2023-02-26T14:20:19;10.75;;;8.80;;
77955;SDS011;67152;36.266;32.294;2023-02-26T14:25:36;17.15;;;9.60;;
77955;SDS011;67152;36.266;32.294;2023-02-26T14:30:51;12.52;;;8.93;;
77955;SDS011;67152;36.266;32.294;2023-02-26T14:33:44;12.98;;;9.55;;
77955;SDS011;67152;36.266;32.294;2023-02-26T14:36:16;17.73;;;8.45;;
77955;SDS011;67152;36.266;32.294;2023-02-26T14:38:51;10.40;;;9.25;;
77955;SDS011;67152;36.266;32.294;2023-02-26T14:41:23;14.15;;;8.40;;
77955;SDS011;67152;36.266;32.294;2023-02-26T14:43:58;11.65;;;7.95;;
77955;SDS011;67152;36.266;32.294;2023-02-26T14:46:27;10.63;;;8.10;;
77955;SDS011;67152;36.266;32.294;2023-02-26T15:02:33;16.80;;;9.18;;
77955;SDS011;67152;36.266;32.294;2023-02-26T15:05:17;15.10;;;9.40;;
77955;SDS011;67152;36.266;32.294;2023-02-26T15:11:11;12.25;;;10.52;;
77955;SDS011;67152;36.266;32.294;2023-02-26T15:13:52;16.00;;;9.27;;
77955;SDS011;67152;36.266;32.294;2023-02-26T15:19:16;11.05;;;9.93;;
77955;SDS011;67152;36.266;32.294;2023-02-26T15:24:55;11.70;;;10.20;;
77955;SDS011;67152;36.266;32.294;2023-02-26T15:27:22;14.43;;;12.15;;
77955;SDS011;67152;36.266;32.294;2023-02-26T15:29:49;12.70;;;10.38;;
77955;SDS011;67152;36.266;32.294;2023-02-26T15:32:22;14.50;;;11.18;;
77955;SDS011;67152;36.266;32.294;2023-02-26T15:35:03;24.63;;;12.63;;
77955;SDS011;67152;36.266;32.294;2023-02-26T15:37:52;13.88;;;10.68;;
77955;SDS011;67152;36.266;32.294;2023-02-26T15:40:27;34.20;;;11.20;;
77955;SDS011;67152;36.266;32.294;2023-02-26T15:43:02;36.50;;;13.63;;
77955;SDS011;67152;36.266;32.294;2023-02-26T15:45:37;26.25;;;14.82;;
77955;SDS011;67152;36.266;32.294;2023-02-26T15:48:48;28.65;;;15.75;;
77955;SDS011;67152;36.266;32.294;2023-02-26T15:51:34;36.92;;;13.52;;
77955;SDS011;67152;36.266;32.294;2023-02-26T15:57:24;33.85;;;16.15;;
77955;SDS011;67152;36.266;32.294;2023-02-26T16:00:15;36.58;;;16.33;;
77955;SDS011;67152;36.266;32.294;2023-02-26T16:02:55;36.25;;;19.20;;
77955;SDS011;67152;36.266;32.294;2023-02-26T16:05:33;66.93;;;21.95;;
77955;SDS011;67152;36.266;32.294;2023-02-26T16:08:42;42.03;;;23.25;;
77955;SDS011;67152;36.266;32.294;2023-02-26T16:11:33;51.38;;;22.75;;
77955;SDS011;67152;36.266;32.294;2023-02-26T16:14:14;38.30;;;23.55;;
77955;SDS011;67152;36.266;32.294;2023-02-26T16:16:50;47.95;;;24.63;;
77955;SDS011;67152;36.266;32.294;2023-02-26T16:27:40;49.78;;;23.95;;
77955;SDS011;67152;36.266;32.294;2023-02-26T16:30:18;43.20;;;24.98;;
77955;SDS011;67152;36.266;32.294;2023-02-26T16:32:53;85.00;;;56.92;;
77955;SDS011;67152;36.266;32.294;2023-02-26T16:35:26;55.72;;;23.08;;
77955;SDS011;67152;36.266;32.294;2023-02-26T16:41:01;67.80;;;29.73;;
77955;SDS011;67152;36.266;32.294;2023-02-26T16:46:04;63.13;;;33.00;;
77955;SDS011;67152;36.266;32.294;2023-02-26T16:48:43;75.00;;;35.75;;
77955;SDS011;67152;36.266;32.294;2023-02-26T16:51:20;74.18;;;40.38;;
77955;SDS011;67152;36.266;32.294;2023-02-26T16:54:08;71.50;;;38.85;;
77955;SDS011;67152;36.266;32.294;2023-02-26T16:56:51;58.33;;;31.40;;
77955;SDS011;67152;36.266;32.294;2023-02-26T16:59:56;58.33;;;30.35;;
77955;SDS011;67152;36.266;32.294;2023-02-26T17:02:45;74.07;;;39.40;;
77955;SDS011;67152;36.266;32.294;2023-02-26T17:11:27;74.95;;;42.65;;
77955;SDS011;67152;36.266;32.294;2023-02-26T17:14:25;62.45;;;35.67;;
77955;SDS011;67152;36.266;32.294;2023-02-26T17:17:29;49.08;;;29.17;;
77955;SDS011;67152;36.266;32.294;2023-02-26T17:20:29;37.55;;;21.50;;
77955;SDS011;67152;36.266;32.294;2023-02-26T17:22:59;58.45;;;31.23;;
77955;SDS011;67152;36.266;32.294;2023-02-26T17:25:36;54.80;;;29.20;;
77955;SDS011;67152;36.266;32.294;2023-02-26T17:28:06;60.38;;;33.25;;
77955;SDS011;67152;36.266;32.294;2023-02-26T17:30:37;68.90;;;42.13;;
77955;SDS011;67152;36.266;32.294;2023-02-26T17:33:08;84.78;;;49.65;;
77955;SDS011;67152;36.266;32.294;2023-02-26T17:35:39;68.63;;;41.83;;
77955;SDS011;67152;36.266;32.294;2023-02-26T17:40:43;63.03;;;39.35;;
77955;SDS011;67152;36.266;32.294;2023-02-26T17:43:14;87.20;;;42.75;;
77955;SDS011;67152;36.266;32.294;2023-02-26T17:45:42;66.10;;;39.42;;
77955;SDS011;67152;36.266;32.294;2023-02-26T17:48:10;70.93;;;44.28;;
77955;SDS011;67152;36.266;32.294;2023-02-26T17:50:42;58.50;;;35.83;;
77955;SDS011;67152;36.266;32.294;2023-02-26T17:53:14;73.07;;;42.58;;
77955;SDS011;67152;36.266;32.294;2023-02-26T17:55:43;71.63;;;41.47;;
77955;SDS011;67152;36.266;32.294;2023-02-26T17:58:17;88.10;;;47.28;;
77955;SDS011;67152;36.266;32.294;2023-02-26T18:00:47;62.60;;;39.53;;
77955;SDS011;67152;36.266;32.294;2023-02-26T18:03:18;74.85;;;40.45;;
77955;SDS011;67152;36.266;32.294;2023-02-26T18:08:18;72.57;;;47.97;;
77955;SDS011;67152;36.266;32.294;2023-02-26T18:10:47;83.65;;;52.17;;
77955;SDS011;67152;36.266;32.294;2023-02-26T18:13:16;100.65;;;57.45;;
77955;SDS011;67152;36.266;32.294;2023-02-26T18:15:43;108.70;;;60.63;;
77955;SDS011;67152;36.266;32.294;2023-02-26T18:18:11;99.25;;;59.80;;
77955;SDS011;67152;36.266;32.294;2023-02-26T18:20:39;79.63;;;55.10;;
77955;SDS011;67152;36.266;32.294;2023-02-26T18:25:35;67.65;;;45.13;;
77955;SDS011;67152;36.266;32.294;2023-02-26T18:28:02;75.60;;;42.42;;
77955;SDS011;67152;36.266;32.294;2023-02-26T18:30:32;67.35;;;40.42;;
77955;SDS011;67152;36.266;32.294;2023-02-26T18:33:19;60.72;;;30.50;;
77955;SDS011;67152;36.266;32.294;2023-02-26T18:35:47;51.90;;;29.83;;
77955;SDS011;67152;36.266;32.294;2023-02-26T18:38:20;50.85;;;29.65;;
77955;SDS011;67152;36.266;32.294;2023-02-26T18:40:51;41.28;;;27.23;;
77955;SDS011;67152;36.266;32.294;2023-02-26T18:43:18;36.40;;;24.95;;
77955;SDS011;67152;36.266;32.294;2023-02-26T18:45:46;33.55;;;21.98;;
77955;SDS011;67152;36.266;32.294;2023-02-26T18:48:15;31.05;;;21.27;;
77955;SDS011;67152;36.266;32.294;2023-02-26T18:50:44;36.22;;;20.65;;
77955;SDS011;67152;36.266;32.294;2023-02-26T18:53:12;36.67;;;18.95;;
77955;SDS011;67152;36.266;32.294;2023-02-26T18:55:42;29.85;;;18.52;;
77955;SDS011;67152;36.266;32.294;2023-02-26T18:58:09;35.88;;;21.20;;
77955;SDS011;67152;36.266;32.294;2023-02-26T19:00:36;29.50;;;19.67;;
77955;SDS011;67152;36.266;32.294;2023-02-26T19:03:04;35.70;;;21.52;;
77955;SDS011;67152;36.266;32.294;2023-02-26T19:05:30;45.75;;;25.10;;
77955;SDS011;67152;36.266;32.294;2023-02-26T19:07:58;60.40;;;27.93;;
77955;SDS011;67152;36.266;32.294;2023-02-26T19:10:26;36.92;;;25.60;;
77955;SDS011;67152;36.266;32.294;2023-02-26T19:12:57;41.92;;;25.60;;
77955;SDS011;67152;36.266;32.294;2023-02-26T19:15:23;41.92;;;26.95;;
77955;SDS011;67152;36.266;32.294;2023-02-26T19:18:11;46.58;;;28.05;;